createdAt,value
2023-09-08T00:01:24.589Z,96122.28
2023-09-08T00:03:27.612Z,96125.22
2023-09-08T00:05:30.447Z,96125.53
2023-09-08T00:07:33.290Z,96123.97
2023-09-08T00:09:36.121Z,96127.09
2023-09-08T00:11:38.948Z,96129.75
2023-09-08T00:13:43.107Z,96121.81
2023-09-08T00:15:46.071Z,96119.47
2023-09-08T00:17:49.346Z,96122.25
2023-09-08T00:19:52.768Z,96120.84
2023-09-08T00:21:55.564Z,96119.28
2023-09-08T00:23:58.919Z,96113.41
2023-09-08T00:26:01.834Z,96117.91
2023-09-08T00:28:05.140Z,96110.59
2023-09-08T00:30:10.634Z,96116.50
2023-09-08T00:32:13.509Z,96111.38
2023-09-08T00:34:16.442Z,96109.31
2023-09-08T00:36:20.120Z,96115.69
2023-09-08T00:38:23.016Z,96113.03
2023-09-08T00:40:26.099Z,96111.16
2023-09-08T00:42:29.004Z,96105.09
2023-09-08T00:44:31.874Z,96110.38
2023-09-08T00:46:36.668Z,96105.25
2023-09-08T00:48:40.174Z,96099.94
2023-09-08T00:50:43.116Z,96104.94
2023-09-08T00:52:45.931Z,96110.81
2023-09-08T00:54:48.898Z,96102.59
2023-09-08T00:56:57.848Z,96111.31
2023-09-08T00:59:01.350Z,96107.56
2023-09-08T01:01:07.084Z,96111.78
2023-09-08T01:03:10.502Z,96103.97
2023-09-08T01:05:15.610Z,96105.53
2023-09-08T01:07:19.424Z,96101.81
2023-09-08T01:09:23.830Z,96107.09
2023-09-08T01:11:28.369Z,96113.00
2023-09-08T01:13:31.341Z,96108.50
2023-09-08T01:15:34.275Z,96106.19
2023-09-08T01:17:37.568Z,96104.63
2023-09-08T01:19:43.617Z,96105.22
2023-09-08T01:22:16.158Z,96102.59
2023-09-08T01:24:35.322Z,96099.63
2023-09-08T01:26:44.027Z,96099.47
2023-09-08T01:28:51.246Z,96097.91
2023-09-08T01:30:56.282Z,96101.16
2023-09-08T01:32:59.449Z,96101.47
2023-09-08T01:35:03.477Z,96096.81
2023-09-08T01:37:06.389Z,96108.31
2023-09-08T01:39:09.846Z,96090.09
2023-09-08T01:41:12.683Z,96103.31
2023-09-08T01:43:17.025Z,96091.97
2023-09-08T01:45:19.937Z,96100.53
2023-09-08T01:47:21.919Z,96090.75
2023-09-08T01:49:24.903Z,96092.72
2023-09-08T01:51:27.741Z,96089.78
2023-09-08T01:53:30.542Z,96089.44
2023-09-08T01:55:33.354Z,96090.56
2023-09-08T01:57:35.153Z,96097.69
2023-09-08T01:59:39.434Z,96087.13
2023-09-08T02:01:42.328Z,96085.09
2023-09-08T02:03:45.223Z,96085.56
2023-09-08T02:05:47.071Z,96091.78
2023-09-08T02:07:50.462Z,96091.78
2023-09-08T02:09:53.479Z,96084.50
2023-09-08T02:11:56.556Z,96090.41
2023-09-08T02:13:59.343Z,96083.41
2023-09-08T02:16:03.597Z,96084.00
2023-09-08T02:18:08.490Z,96079.03
2023-09-08T02:20:12.688Z,96076.69
2023-09-08T02:22:15.908Z,96078.72
2023-09-08T02:24:18.777Z,96082.94
2023-09-08T02:26:20.703Z,96082.44
2023-09-08T02:28:23.675Z,96080.59
2023-09-08T02:30:29.058Z,96078.72
2023-09-08T02:32:33.856Z,96084.00
2023-09-08T02:34:38.648Z,96081.84
2023-09-08T02:36:42.980Z,96077.00
2023-09-08T02:38:44.879Z,96085.09
2023-09-08T02:40:47.772Z,96082.00
2023-09-08T02:42:50.664Z,96089.78
2023-09-08T02:44:54.257Z,96085.56
2023-09-08T02:46:57.424Z,96094.09
2023-09-08T02:49:03.575Z,96085.84
2023-09-08T02:51:06.511Z,96085.22
2023-09-08T02:53:09.328Z,96084.28
2023-09-08T02:55:11.259Z,96086.47
2023-09-08T02:57:14.098Z,96089.41
2023-09-08T02:59:17.895Z,96085.69
2023-09-08T03:01:21.649Z,96082.72
2023-09-08T03:03:24.800Z,96084.28
2023-09-08T03:05:29.290Z,96083.94
2023-09-08T03:07:32.142Z,96089.81
2023-09-08T03:09:35.963Z,96086.75
2023-09-08T03:11:39.395Z,96084.41
2023-09-08T03:13:43.812Z,96084.41
2023-09-08T03:15:46.708Z,96077.72
2023-09-08T03:17:49.500Z,96075.53
2023-09-08T03:19:52.283Z,96079.25
2023-09-08T03:21:56.525Z,96081.75
2023-09-08T03:23:59.366Z,96077.50
2023-09-08T03:26:01.195Z,96079.19
2023-09-08T03:28:04.040Z,96080.56
2023-09-08T03:30:09.376Z,96079.78
2023-09-08T03:32:12.357Z,96079.97
2023-09-08T03:34:15.808Z,96079.19
2023-09-08T03:36:19.584Z,96077.03
2023-09-08T03:38:23.868Z,96082.31
2023-09-08T03:40:27.160Z,96077.03
2023-09-08T03:42:30.546Z,96078.41
2023-09-08T03:44:33.400Z,96082.91
2023-09-08T03:46:36.310Z,96079.00
2023-09-08T03:48:39.193Z,96071.22
2023-09-08T03:50:46.252Z,96079.44
2023-09-08T03:52:49.135Z,96075.84
2023-09-08T03:54:53.264Z,96075.38
2023-09-08T03:56:56.066Z,96080.66
2023-09-08T03:58:59.071Z,96084.38
2023-09-08T04:01:02.087Z,96081.25
2023-09-08T04:03:05.633Z,96081.72
2023-09-08T04:05:09.401Z,96078.78
2023-09-08T04:07:11.208Z,96087.50
2023-09-08T04:09:14.095Z,96086.53
2023-09-08T04:11:18.485Z,96084.53
2023-09-08T04:13:20.309Z,96088.72
2023-09-08T04:15:23.755Z,96085.00
2023-09-08T04:17:26.185Z,96086.53
2023-09-08T04:19:29.011Z,96085.22
2023-09-08T04:21:31.906Z,96086.09
2023-09-08T04:23:34.914Z,96088.03
2023-09-08T04:25:38.509Z,96086.72
2023-09-08T04:27:42.988Z,96084.00
2023-09-08T04:29:45.880Z,96079.41
2023-09-08T04:31:48.740Z,96088.41
2023-09-08T04:33:51.623Z,96089.91
2023-09-08T04:35:53.488Z,96089.38
2023-09-08T04:37:56.278Z,96094.13
2023-09-08T04:39:59.107Z,96095.41
2023-09-08T04:42:02.095Z,96097.13
2023-09-08T04:44:07.454Z,96100.31
2023-09-08T04:46:10.890Z,96101.47
2023-09-08T04:48:14.957Z,96106.47
2023-09-08T04:50:18.048Z,96099.31
2023-09-08T04:52:21.730Z,96103.28
2023-09-08T04:54:27.781Z,96101.91
2023-09-08T04:56:31.933Z,96096.78
2023-09-08T04:58:34.983Z,96106.66
2023-09-08T05:00:41.105Z,96098.56
2023-09-08T05:02:44.780Z,96100.19
2023-09-08T05:04:48.337Z,96098.41
2023-09-08T05:06:51.164Z,96094.50
2023-09-08T05:08:55.245Z,96096.22
2023-09-08T05:11:00.232Z,96093.09
2023-09-08T05:13:04.436Z,96097.31
2023-09-08T05:15:15.802Z,96098.88
2023-09-08T05:17:23.464Z,96098.09
2023-09-08T05:19:26.812Z,96098.88
2023-09-08T05:21:29.661Z,96098.88
2023-09-08T05:23:33.013Z,96105.72
2023-09-08T05:25:35.902Z,96103.31
2023-09-08T05:27:39.073Z,96107.00
2023-09-08T05:29:41.892Z,96111.97
2023-09-08T05:31:44.141Z,96112.44
2023-09-08T05:33:48.271Z,96114.78
2023-09-08T05:35:51.096Z,96118.72
2023-09-08T05:37:53.837Z,96119.44
2023-09-08T05:39:56.640Z,96122.25
2023-09-08T05:42:00.323Z,96123.56
2023-09-08T05:44:03.164Z,96131.38
2023-09-08T05:46:05.327Z,96132.34
2023-09-08T05:48:08.760Z,96129.94
2023-09-08T05:50:13.202Z,96129.13
2023-09-08T05:52:16.011Z,96133.00
2023-09-08T05:54:20.120Z,96131.38
2023-09-08T05:56:26.632Z,96133.22
2023-09-08T05:58:29.574Z,96135.56
2023-09-08T06:00:32.480Z,96128.19
2023-09-08T06:02:34.405Z,96131.31
2023-09-08T06:04:37.563Z,96134.44
2023-09-08T06:06:42.328Z,96127.03
2023-09-08T06:08:45.086Z,96138.03
2023-09-08T06:10:48.203Z,96134.84
2023-09-08T06:12:52.032Z,96122.25
2023-09-08T06:14:54.880Z,96126.94
2023-09-08T06:16:58.110Z,96123.44
2023-09-08T06:19:01.657Z,96121.81
2023-09-08T06:21:05.180Z,96133.00
2023-09-08T06:23:09.493Z,96130.53
2023-09-08T06:25:12.329Z,96129.88
2023-09-08T06:27:16.462Z,96131.53
2023-09-08T06:29:19.869Z,96127.50
2023-09-08T06:31:22.779Z,96131.78
2023-09-08T06:33:26.005Z,96137.44
2023-09-08T06:35:28.210Z,96133.06
2023-09-08T06:37:31.171Z,96130.84
2023-09-08T06:39:35.442Z,96131.44
2023-09-08T06:41:39.567Z,96141.81
2023-09-08T06:43:43.747Z,96132.16
2023-09-08T06:45:52.128Z,96127.47
2023-09-08T06:47:57.803Z,96128.88
2023-09-08T06:50:01.200Z,96134.69
2023-09-08T06:52:05.841Z,96132.44
2023-09-08T06:54:08.872Z,96136.53
2023-09-08T06:56:15.842Z,96136.81
2023-09-08T06:58:18.772Z,96131.63
2023-09-08T07:00:22.493Z,96132.94
2023-09-08T07:02:25.733Z,96135.00
2023-09-08T07:04:29.520Z,96132.56
2023-09-08T07:06:32.521Z,96137.44
2023-09-08T07:08:35.862Z,96134.84
2023-09-08T07:10:39.073Z,96133.28
2023-09-08T07:12:44.053Z,96135.53
2023-09-08T07:14:47.239Z,96134.63
2023-09-08T07:16:50.320Z,96140.44
2023-09-08T07:18:53.454Z,96139.59
2023-09-08T07:20:56.312Z,96135.63
2023-09-08T07:22:59.191Z,96140.19
2023-09-08T07:25:02.648Z,96133.56
2023-09-08T07:27:05.939Z,96135.97
2023-09-08T07:29:10.118Z,96130.91
2023-09-08T07:31:13.663Z,96127.00
2023-09-08T07:33:20.592Z,96135.78
2023-09-08T07:35:25.244Z,96131.28
2023-09-08T07:37:28.640Z,96128.06
2023-09-08T07:39:32.942Z,96135.09
2023-09-08T07:41:36.121Z,96122.31
2023-09-08T07:43:41.730Z,96132.75
2023-09-08T07:45:48.121Z,96132.63
2023-09-08T07:47:51.047Z,96141.16
2023-09-08T07:49:53.863Z,96136.53
2023-09-08T07:51:56.595Z,96139.50
2023-09-08T07:53:59.412Z,96139.53
2023-09-08T07:56:02.572Z,96139.53
2023-09-08T07:58:06.250Z,96136.13
2023-09-08T08:00:12.563Z,96135.34
2023-09-08T08:02:16.810Z,96135.66
2023-09-08T08:04:19.668Z,96133.78
2023-09-08T08:06:22.575Z,96136.72
2023-09-08T08:08:25.431Z,96134.22
2023-09-08T08:10:28.426Z,96130.63
2023-09-08T08:12:30.280Z,96132.66
2023-09-08T08:14:33.144Z,96133.75
2023-09-08T08:16:36.803Z,96137.94
2023-09-08T08:18:41.324Z,96140.72
2023-09-08T08:20:44.532Z,96138.03
2023-09-08T08:22:48.498Z,96142.81
2023-09-08T08:24:51.299Z,96140.94
2023-09-08T08:26:54.320Z,96142.91
2023-09-08T08:28:57.168Z,96140.22
2023-09-08T08:30:59.045Z,96135.50
2023-09-08T08:33:01.840Z,96139.91
2023-09-08T08:35:06.879Z,96138.00
2023-09-08T08:37:09.659Z,96138.41
2023-09-08T08:39:12.502Z,96141.22
2023-09-08T08:41:15.788Z,96142.41
2023-09-08T08:43:17.745Z,96137.00
2023-09-08T08:45:24.435Z,96134.25
2023-09-08T08:47:28.714Z,96138.50
2023-09-08T08:49:33.954Z,96142.09
2023-09-08T08:51:40.357Z,96135.72
2023-09-08T08:53:44.206Z,96136.22
2023-09-08T08:55:48.006Z,96135.88
2023-09-08T08:57:51.902Z,96135.56
2023-09-08T08:59:55.466Z,96129.47
2023-09-08T09:01:59.529Z,96134.00
2023-09-08T09:04:02.691Z,96125.50
2023-09-08T09:06:06.482Z,96128.25
2023-09-08T09:08:12.831Z,96130.91
2023-09-08T09:10:16.082Z,96125.78
2023-09-08T09:12:23.179Z,96129.50
2023-09-08T09:14:26.193Z,96133.91
2023-09-08T09:16:29.000Z,96133.66
2023-09-08T09:18:32.475Z,96134.72
2023-09-08T09:20:36.260Z,96135.78
2023-09-08T09:22:39.340Z,96138.28
2023-09-08T09:24:45.027Z,96135.66
2023-09-08T09:26:48.170Z,96132.75
2023-09-08T09:28:53.117Z,96139.56
2023-09-08T09:30:56.507Z,96126.56
2023-09-08T09:33:03.926Z,96136.22
2023-09-08T09:35:07.913Z,96132.50
2023-09-08T09:37:11.185Z,96130.47
2023-09-08T09:39:15.499Z,96128.06
2023-09-08T09:41:19.728Z,96129.94
2023-09-08T09:43:24.099Z,96129.94
2023-09-08T09:45:26.343Z,96130.66
2023-09-08T09:47:29.386Z,96129.53
2023-09-08T09:49:33.263Z,96124.16
2023-09-08T09:51:42.770Z,96127.38
2023-09-08T09:53:45.668Z,96130.16
2023-09-08T09:55:47.660Z,96127.34
2023-09-08T09:57:52.541Z,96129.81
2023-09-08T09:59:57.090Z,96130.78
2023-09-08T10:02:00.876Z,96131.44
2023-09-08T10:04:05.332Z,96123.91
2023-09-08T10:06:08.752Z,96121.38
2023-09-08T10:08:11.803Z,96115.50
2023-09-08T10:10:13.854Z,96121.78
2023-09-08T10:12:20.354Z,96120.34
2023-09-08T10:14:25.775Z,96125.34
2023-09-08T10:16:30.248Z,96119.34
2023-09-08T10:18:36.224Z,96123.28
2023-09-08T10:20:40.142Z,96119.94
2023-09-08T10:22:44.624Z,96117.16
2023-09-08T10:24:50.666Z,96113.44
2023-09-08T10:27:00.312Z,96108.19
2023-09-08T10:29:03.986Z,96104.09
2023-09-08T10:31:10.864Z,96106.56
2023-09-08T10:33:16.944Z,96105.06
2023-09-08T10:35:20.533Z,96110.88
2023-09-08T10:37:25.904Z,96108.00
2023-09-08T10:39:33.320Z,96102.31
2023-09-08T10:41:36.110Z,96105.13
2023-09-08T10:43:39.894Z,96105.19
2023-09-08T10:45:43.352Z,96107.91
2023-09-08T10:48:00.572Z,96104.56
2023-09-08T10:50:04.866Z,96108.03
2023-09-08T10:52:12.063Z,96100.41
2023-09-08T10:54:43.950Z,96100.09
2023-09-08T10:56:55.918Z,96095.97
2023-09-08T10:59:02.561Z,96099.09
2023-09-08T11:01:05.883Z,96101.84
2023-09-08T11:03:09.189Z,96099.56
2023-09-08T11:05:14.329Z,96100.31
2023-09-08T11:07:18.154Z,96094.56
2023-09-08T11:09:22.157Z,96098.81
2023-09-08T11:11:24.995Z,96092.66
2023-09-08T11:13:29.122Z,96093.81
2023-09-08T11:15:32.270Z,96104.22
2023-09-08T11:17:36.370Z,96091.09
2023-09-08T11:19:49.128Z,96096.50
2023-09-08T11:21:51.913Z,96098.78
2023-09-08T11:23:54.988Z,96096.47
2023-09-08T11:25:58.053Z,96092.63
2023-09-08T11:28:01.869Z,96101.03
2023-09-08T11:30:06.234Z,96096.75
2023-09-08T11:32:09.408Z,96097.94
2023-09-08T11:34:14.944Z,96102.91
2023-09-08T11:36:20.526Z,96101.72
2023-09-08T11:38:27.268Z,96103.16
2023-09-08T11:40:30.239Z,96097.75
2023-09-08T11:42:33.077Z,96093.41
2023-09-08T11:44:37.752Z,96096.09
2023-09-08T11:46:41.146Z,96094.97
2023-09-08T11:48:43.149Z,96093.78
2023-09-08T11:50:46.133Z,96096.81
2023-09-08T11:52:51.770Z,96097.09
2023-09-08T11:55:06.631Z,96096.97
2023-09-08T11:57:13.077Z,96094.00
2023-09-08T11:59:16.122Z,96086.94
2023-09-08T12:01:19.056Z,96090.97
2023-09-08T12:03:21.938Z,96090.81
2023-09-08T12:05:26.252Z,96092.91
2023-09-08T12:07:29.299Z,96088.09
2023-09-08T12:09:33.650Z,96087.47
2023-09-08T12:11:38.273Z,96089.59
2023-09-08T12:13:41.372Z,96086.38
2023-09-08T12:15:44.986Z,96087.47
2023-09-08T12:17:51.985Z,96086.84
2023-09-08T12:19:54.727Z,96085.22
2023-09-08T12:21:59.000Z,96085.19
2023-09-08T12:24:01.838Z,96080.44
2023-09-08T12:26:05.944Z,96078.91
2023-09-08T12:28:08.848Z,96078.78
2023-09-08T12:30:18.102Z,96079.34
2023-09-08T12:32:20.997Z,96070.69
2023-09-08T12:34:23.917Z,96071.38
2023-09-08T12:36:26.676Z,96071.59
2023-09-08T12:38:33.061Z,96072.78
2023-09-08T12:40:37.251Z,96062.97
2023-09-08T12:42:47.543Z,96073.22
2023-09-08T12:44:54.348Z,96066.34
2023-09-08T12:46:57.267Z,96071.97
2023-09-08T12:49:00.030Z,96063.72
2023-09-08T12:51:03.870Z,96069.03
2023-09-08T12:53:06.593Z,96074.56
2023-09-08T12:55:10.391Z,96070.06
2023-09-08T12:57:13.247Z,96071.38
2023-09-08T12:59:17.309Z,96063.81
2023-09-08T13:01:20.099Z,96067.72
2023-09-08T13:03:22.852Z,96062.69
2023-09-08T13:05:25.748Z,96064.09
2023-09-08T13:07:29.189Z,96065.81
2023-09-08T13:09:31.897Z,96052.25
2023-09-08T13:11:33.872Z,96051.09
2023-09-08T13:13:36.603Z,96043.19
2023-09-08T13:15:41.766Z,96046.47
2023-09-08T13:17:44.562Z,96048.25
2023-09-08T13:19:46.449Z,96046.88
2023-09-08T13:21:49.209Z,96041.00
2023-09-08T13:23:51.905Z,96047.03
2023-09-08T13:25:53.651Z,96043.16
2023-09-08T13:27:56.733Z,96045.53
2023-09-08T13:30:10.826Z,96039.03
2023-09-08T13:32:14.944Z,96036.75
2023-09-08T13:34:18.006Z,96040.53
2023-09-08T13:36:21.031Z,96040.25
2023-09-08T13:38:23.795Z,96033.06
2023-09-08T13:40:26.917Z,96040.38
2023-09-08T13:42:29.741Z,96029.06
2023-09-08T13:44:32.559Z,96031.69
2023-09-08T13:46:34.382Z,96027.25
2023-09-08T13:48:39.251Z,96027.56
2023-09-08T13:50:44.687Z,96037.41
2023-09-08T13:52:48.267Z,96035.13
2023-09-08T13:55:09.917Z,96031.91
2023-09-08T13:57:15.087Z,96036.31
2023-09-08T13:59:19.597Z,96031.44
2023-09-08T14:01:26.571Z,96035.63
2023-09-08T14:03:31.070Z,96032.63
2023-09-08T14:05:37.924Z,96033.03
2023-09-08T14:13:58.471Z,96030.13
2023-09-08T14:16:02.817Z,96024.13
2023-09-08T14:18:06.305Z,96029.41
2023-09-08T14:20:10.322Z,96022.75
2023-09-08T14:22:14.690Z,96031.34
2023-09-08T14:24:17.429Z,96028.84
2023-09-08T14:26:21.094Z,96028.75
2023-09-08T14:28:23.951Z,96029.59
2023-09-08T14:30:26.717Z,96030.13
2023-09-08T14:32:29.518Z,96025.75
2023-09-08T14:34:32.319Z,96025.53
2023-09-08T14:36:35.067Z,96027.06
2023-09-08T14:38:39.264Z,96019.38
2023-09-08T14:40:41.991Z,96018.78
2023-09-08T14:42:44.747Z,96023.50
2023-09-08T14:44:47.491Z,96018.78
2023-09-08T14:46:50.300Z,96014.38
2023-09-08T14:48:53.111Z,96015.53
2023-09-08T14:50:56.726Z,96015.81
2023-09-08T14:52:59.431Z,96015.47
2023-09-08T14:55:03.516Z,96011.69
2023-09-08T14:57:06.463Z,96009.66
2023-09-08T14:59:10.376Z,96005.00
2023-09-08T15:01:15.078Z,96015.09
2023-09-08T15:03:18.018Z,96015.34
2023-09-08T15:05:20.812Z,96008.94
2023-09-08T15:07:23.669Z,96016.06
2023-09-08T15:09:25.451Z,96020.06
2023-09-08T15:11:29.549Z,96016.28
2023-09-08T15:13:32.322Z,96019.13
2023-09-08T15:15:35.203Z,96013.34
2023-09-08T15:17:37.956Z,96007.50
2023-09-08T15:19:40.969Z,96014.22
2023-09-08T15:21:43.644Z,96019.28
2023-09-08T15:23:46.454Z,96014.88
2023-09-08T15:25:52.715Z,96013.84
2023-09-08T15:27:57.734Z,96017.31
2023-09-08T15:30:00.623Z,96021.19
2023-09-08T15:32:04.401Z,96014.81
2023-09-08T15:34:08.794Z,96011.44
2023-09-08T15:36:11.579Z,96013.63
2023-09-08T15:38:15.048Z,96024.00
2023-09-08T15:40:18.058Z,96017.53
2023-09-08T15:42:20.861Z,96015.28
2023-09-08T15:44:25.725Z,96016.84
2023-09-08T15:46:28.596Z,96017.53
2023-09-08T15:48:30.417Z,96012.75
2023-09-08T15:50:33.118Z,96009.88
2023-09-08T15:52:34.854Z,96002.66
2023-09-08T15:54:37.584Z,96006.19
2023-09-08T15:56:40.326Z,95998.19
2023-09-08T15:58:43.111Z,96000.22
2023-09-08T16:00:47.253Z,95998.19
2023-09-08T16:02:50.164Z,96008.75
2023-09-08T16:04:53.329Z,95999.41
2023-09-08T16:06:56.123Z,96008.63
2023-09-08T16:08:58.809Z,96005.16
2023-09-08T16:11:02.205Z,95990.41
2023-09-08T16:13:05.416Z,96004.22
2023-09-08T16:15:08.982Z,95998.69
2023-09-08T16:17:13.596Z,95999.88
2023-09-08T16:19:18.720Z,96001.31
2023-09-08T16:21:21.420Z,96010.50
2023-09-08T16:23:24.196Z,96006.25
2023-09-08T16:25:27.443Z,96010.25
2023-09-08T16:27:31.308Z,96009.09
2023-09-08T16:29:34.033Z,96006.31
2023-09-08T16:31:36.765Z,96007.00
2023-09-08T16:33:40.848Z,96003.38
2023-09-08T16:35:42.854Z,96000.97
2023-09-08T16:37:45.721Z,96003.03
2023-09-08T16:39:48.450Z,96006.75
2023-09-08T16:41:51.149Z,96012.78
2023-09-08T16:43:54.353Z,96008.56
2023-09-08T16:45:57.111Z,96016.72
2023-09-08T16:47:59.887Z,96016.66
2023-09-08T16:50:04.598Z,96015.78
2023-09-08T16:52:07.478Z,96007.56
2023-09-08T16:54:10.399Z,96005.00
2023-09-08T16:56:13.577Z,96007.66
2023-09-08T16:58:16.322Z,96010.28
2023-09-08T17:00:20.150Z,96018.38
2023-09-08T17:02:23.225Z,96007.78
2023-09-08T17:04:26.447Z,96011.69
2023-09-08T17:06:30.600Z,96021.25
2023-09-08T17:08:33.342Z,96020.47
2023-09-08T17:10:36.882Z,96010.28
2023-09-08T17:12:41.055Z,96020.69
2023-09-08T17:14:43.795Z,96022.25
2023-09-08T17:16:46.553Z,96016.28
2023-09-08T17:18:49.347Z,96018.75
2023-09-08T17:20:52.253Z,96018.97
2023-09-08T17:22:56.394Z,96022.06
2023-09-08T17:24:59.207Z,96021.22
2023-09-08T17:27:01.920Z,96025.63
2023-09-08T17:29:04.689Z,96018.78
2023-09-08T17:31:07.574Z,96021.88
2023-09-08T17:33:10.447Z,96017.28
2023-09-08T17:35:13.205Z,96024.09
2023-09-08T17:37:16.125Z,96016.69
2023-09-08T17:39:20.791Z,96026.13
2023-09-08T17:41:23.588Z,96021.34
2023-09-08T17:43:26.483Z,96015.88
2023-09-08T17:45:29.421Z,96028.34
2023-09-08T17:47:32.421Z,96023.41
2023-09-08T17:49:36.107Z,96027.28
2023-09-08T17:51:38.925Z,96025.44
2023-09-08T17:53:41.804Z,96033.94
2023-09-08T17:55:45.969Z,96038.88
2023-09-08T17:57:49.652Z,96029.47
2023-09-08T17:59:52.596Z,96027.81
2023-09-08T18:01:55.529Z,96031.53
2023-09-08T18:03:58.772Z,96035.84
2023-09-08T18:06:00.719Z,96024.91
2023-09-08T18:08:03.499Z,96024.59
2023-09-08T18:10:07.544Z,96028.13
2023-09-08T18:12:11.676Z,96033.91
2023-09-08T18:14:14.588Z,96033.91
2023-09-08T18:16:17.595Z,96036.03
2023-09-08T18:18:21.194Z,96036.25
2023-09-08T18:20:24.092Z,96040.03
2023-09-08T18:22:27.063Z,96033.72
2023-09-08T18:24:29.850Z,96037.19
2023-09-08T18:26:32.598Z,96037.88
2023-09-08T18:28:36.817Z,96038.81
2023-09-08T18:30:38.650Z,96042.31
2023-09-08T18:32:42.694Z,96046.03
2023-09-08T18:34:44.917Z,96040.50
2023-09-08T18:36:47.975Z,96041.69
2023-09-08T18:38:50.924Z,96044.19
2023-09-08T18:40:52.780Z,96047.00
2023-09-08T18:42:55.549Z,96049.56
2023-09-08T18:44:59.744Z,96047.81
2023-09-08T18:47:03.356Z,96053.38
2023-09-08T18:49:06.354Z,96052.94
2023-09-08T18:51:09.237Z,96053.66
2023-09-08T18:53:12.665Z,96055.16
2023-09-08T18:55:16.346Z,96053.97
2023-09-08T18:57:19.151Z,96054.31
2023-09-08T18:59:21.916Z,96054.22
2023-09-08T19:01:26.267Z,96058.31
2023-09-08T19:03:29.166Z,96052.47
2023-09-08T19:05:32.011Z,96059.13
2023-09-08T19:07:34.006Z,96059.06
2023-09-08T19:09:36.817Z,96057.28
2023-09-08T19:11:39.768Z,96063.19
2023-09-08T19:13:42.497Z,96054.63
2023-09-08T19:15:45.309Z,96056.44
2023-09-08T19:17:49.471Z,96052.44
2023-09-08T19:19:52.280Z,96052.66
2023-09-08T19:21:55.155Z,96052.00
2023-09-08T19:23:57.957Z,96044.25
2023-09-08T19:26:06.127Z,96046.59
2023-09-08T19:28:09.065Z,96052.13
2023-09-08T19:30:12.814Z,96050.91
2023-09-08T19:32:14.634Z,96054.56
2023-09-08T19:34:18.901Z,96053.69
2023-09-08T19:36:21.698Z,96055.78
2023-09-08T19:38:24.627Z,96058.03
2023-09-08T19:40:28.720Z,96055.69
2023-09-08T19:42:31.597Z,96058.03
2023-09-08T19:44:34.575Z,96050.25
2023-09-08T19:46:37.763Z,96058.13
2023-09-08T19:48:40.817Z,96056.81
2023-09-08T19:50:46.844Z,96062.56
2023-09-08T19:52:48.750Z,96057.75
2023-09-08T19:54:51.607Z,96055.22
2023-09-08T19:56:54.405Z,96058.97
2023-09-08T19:58:57.252Z,96054.75
2023-09-08T20:01:05.137Z,96059.50
2023-09-08T20:03:08.102Z,96057.97
2023-09-08T20:05:11.912Z,96055.75
2023-09-08T20:07:16.132Z,96058.84
2023-09-08T20:09:19.206Z,96057.53
2023-09-08T20:11:22.079Z,96052.22
2023-09-08T20:13:25.037Z,96053.31
2023-09-08T20:15:27.855Z,96057.97
2023-09-08T20:17:30.779Z,96058.63
2023-09-08T20:19:34.352Z,96056.31
2023-09-08T20:21:37.216Z,96048.00
2023-09-08T20:23:41.708Z,96054.75
2023-09-08T20:25:45.514Z,96052.41
2023-09-08T20:27:48.808Z,96053.19
2023-09-08T20:29:55.104Z,96048.97
2023-09-08T20:31:58.554Z,96052.41
2023-09-08T20:34:01.579Z,96050.09
2023-09-08T20:36:03.759Z,96046.97
2023-09-08T20:38:07.113Z,96049.53
2023-09-08T20:40:12.815Z,96048.63
2023-09-08T20:42:15.711Z,96057.25
2023-09-08T20:44:17.695Z,96058.34
2023-09-08T20:46:20.585Z,96060.78
2023-09-08T20:48:23.914Z,96058.56
2023-09-08T20:50:27.188Z,96059.66
2023-09-08T20:52:30.048Z,96059.69
2023-09-08T20:54:34.354Z,96058.28
2023-09-08T20:56:39.984Z,96056.91
2023-09-08T20:58:43.218Z,96065.53
2023-09-08T21:00:46.065Z,96056.19
2023-09-08T21:02:48.976Z,96058.38
2023-09-08T21:04:51.880Z,96060.56
2023-09-08T21:06:54.853Z,96060.47
2023-09-08T21:08:57.624Z,96058.13
2023-09-08T21:10:59.812Z,96057.66
2023-09-08T21:13:03.916Z,96055.66
2023-09-08T21:15:08.002Z,96048.19
2023-09-08T21:17:09.882Z,96048.38
2023-09-08T21:19:12.859Z,96050.25
2023-09-08T21:21:15.653Z,96046.03
2023-09-08T21:23:19.613Z,96046.03
2023-09-08T21:25:23.654Z,96046.03
2023-09-08T21:27:26.498Z,96042.94
2023-09-08T21:29:30.643Z,96045.16
2023-09-08T21:31:33.468Z,96044.38
2023-09-08T21:33:38.112Z,96041.09
2023-09-08T21:35:41.490Z,96038.50
2023-09-08T21:37:44.505Z,96039.94
2023-09-08T21:39:49.859Z,96043.22
2023-09-08T21:41:52.755Z,96040.44
2023-09-08T21:43:54.519Z,96039.50
2023-09-08T21:46:05.141Z,96035.63
2023-09-08T21:48:08.781Z,96041.56
2023-09-08T21:50:11.669Z,96040.81
2023-09-08T21:52:18.736Z,96043.78
2023-09-08T21:54:30.928Z,96045.03
2023-09-08T21:56:33.714Z,96044.72
2023-09-08T21:58:36.758Z,96046.91
2023-09-08T22:00:40.081Z,96042.00
2023-09-08T22:02:44.360Z,96043.38
2023-09-08T22:04:47.570Z,96046.88
2023-09-08T22:06:50.880Z,96044.72
2023-09-08T22:08:53.734Z,96048.44
2023-09-08T22:11:03.512Z,96040.72
2023-09-08T22:13:06.443Z,96038.19
2023-09-08T22:15:09.454Z,96039.88
2023-09-08T22:17:12.366Z,96039.22
2023-09-08T22:19:16.512Z,96034.03
2023-09-08T22:21:19.674Z,96034.03
2023-09-08T22:23:22.454Z,96034.50
2023-09-08T22:25:25.276Z,96033.84
2023-09-08T22:27:28.025Z,96032.31
2023-09-08T22:29:31.077Z,96036.06
2023-09-08T22:31:34.153Z,96029.19
2023-09-08T22:33:37.221Z,96034.81
2023-09-08T22:35:41.662Z,96029.19
2023-09-08T22:37:44.421Z,96027.97
2023-09-08T22:39:46.172Z,96030.28
2023-09-08T22:41:49.041Z,96032.50
2023-09-08T22:43:54.642Z,96027.97
2023-09-08T22:45:57.445Z,96028.59
2023-09-08T22:48:00.306Z,96027.81
2023-09-08T22:50:08.439Z,96020.97
2023-09-08T22:52:12.529Z,96023.63
2023-09-08T22:54:15.286Z,96025.84
2023-09-08T22:56:18.096Z,96023.63
2023-09-08T22:58:21.094Z,96027.72
2023-09-08T23:00:23.545Z,96028.81
2023-09-08T23:02:26.580Z,96023.84
2023-09-08T23:04:28.553Z,96025.56
2023-09-08T23:06:31.306Z,96023.69
2023-09-08T23:08:35.464Z,96022.59
2023-09-08T23:10:38.287Z,96026.69
2023-09-08T23:12:41.092Z,96026.69
2023-09-08T23:14:54.098Z,96024.34
2023-09-08T23:16:57.668Z,96027.34
2023-09-08T23:19:00.526Z,96021.13
2023-09-08T23:21:04.174Z,96014.78
2023-09-08T23:23:06.399Z,96015.31
2023-09-08T23:25:10.963Z,96012.19
2023-09-08T23:27:13.990Z,96007.41
2023-09-08T23:29:15.912Z,96007.00
2023-09-08T23:31:18.802Z,96010.28
2023-09-08T23:33:21.763Z,95997.81
2023-09-08T23:35:23.963Z,96003.91
2023-09-08T23:37:26.983Z,96004.19
2023-09-08T23:39:29.965Z,96001.34
2023-09-08T23:41:34.243Z,96005.34
2023-09-08T23:43:38.030Z,96007.34
2023-09-08T23:45:45.336Z,96013.88
2023-09-08T23:47:48.855Z,96007.81
2023-09-08T23:49:52.351Z,96005.94
2023-09-08T23:51:55.149Z,96004.84
2023-09-08T23:53:58.026Z,96010.91
2023-09-08T23:56:02.689Z,96004.06
2023-09-08T23:58:05.883Z,96006.72
